createdAt,value
2022-08-08T00:00:41.121Z,15.44
2022-08-08T00:06:03.931Z,15.21
2022-08-08T00:11:17.578Z,14.96
2022-08-08T00:16:37.279Z,14.65
2022-08-08T00:21:51.644Z,14.42
2022-08-08T00:26:59.144Z,14.28
2022-08-08T00:32:33.005Z,14.18
2022-08-08T00:38:01.952Z,14.08
2022-08-08T00:43:39.947Z,13.98
2022-08-08T00:49:05.139Z,13.91
2022-08-08T00:54:43.413Z,13.90
2022-08-08T01:00:06.473Z,13.93
2022-08-08T01:05:59.156Z,13.92
2022-08-08T01:11:43.255Z,13.85
2022-08-08T01:17:35.069Z,13.77
2022-08-08T01:24:06.130Z,13.70
2022-08-08T01:29:24.223Z,13.70
2022-08-08T01:34:45.595Z,13.78
2022-08-08T01:40:14.599Z,13.74
2022-08-08T01:45:37.585Z,13.67
2022-08-08T01:50:58.211Z,13.70
2022-08-08T01:56:28.559Z,13.71
2022-08-08T02:02:03.120Z,13.64
2022-08-08T02:07:16.628Z,13.63
2022-08-08T02:12:31.927Z,13.56
2022-08-08T02:17:44.213Z,13.52
2022-08-08T02:22:58.874Z,13.51
2022-08-08T02:28:09.869Z,13.54
2022-08-08T02:34:00.199Z,13.60
2022-08-08T02:39:40.755Z,13.67
2022-08-08T02:45:22.613Z,13.75
2022-08-08T02:50:58.660Z,13.88
2022-08-08T02:56:34.870Z,13.99
2022-08-08T03:02:20.361Z,14.02
2022-08-08T03:08:02.356Z,14.02
2022-08-08T03:16:00.297Z,14.03
2022-08-08T03:19:50.841Z,14.05
2022-08-08T03:24:57.003Z,14.04
2022-08-08T03:30:05.489Z,14.04
2022-08-08T03:35:12.974Z,14.08
2022-08-08T03:40:29.723Z,14.13
2022-08-08T03:46:03.307Z,14.18
2022-08-08T03:50:58.668Z,14.19
2022-08-08T03:56:04.521Z,14.20
2022-08-08T04:01:23.345Z,14.18
2022-08-08T04:06:30.504Z,14.17
2022-08-08T04:11:58.042Z,14.15
2022-08-08T04:17:06.944Z,14.18
2022-08-08T04:22:26.837Z,14.22
2022-08-08T04:28:03.677Z,14.22
2022-08-08T04:32:58.348Z,14.21
2022-08-08T04:38:02.606Z,14.24
2022-08-08T04:43:08.857Z,14.34
2022-08-08T04:48:16.563Z,14.43
2022-08-08T04:54:27.444Z,14.52
2022-08-08T04:58:50.697Z,14.65
2022-08-08T05:04:10.272Z,14.75
2022-08-08T05:09:16.737Z,14.86
2022-08-08T05:14:21.351Z,14.93
2022-08-08T05:20:10.911Z,14.99
2022-08-08T05:24:57.492Z,15.03
2022-08-08T05:30:03.817Z,15.05
2022-08-08T05:35:13.683Z,15.09
2022-08-08T05:40:18.709Z,15.25
2022-08-08T05:45:41.661Z,15.25
2022-08-08T05:50:58.991Z,15.25
2022-08-08T05:56:20.442Z,15.26
2022-08-08T06:01:56.359Z,15.26
2022-08-08T06:07:03.704Z,15.23
2022-08-08T06:12:10.175Z,15.21
2022-08-08T06:17:50.570Z,15.25
2022-08-08T06:22:46.884Z,15.28
2022-08-08T06:27:57.811Z,15.28
2022-08-08T06:33:04.025Z,15.23
2022-08-08T06:38:18.948Z,15.15
2022-08-08T06:43:28.520Z,15.14
2022-08-08T06:48:35.908Z,15.17
2022-08-08T06:53:50.961Z,15.21
2022-08-08T06:59:00.296Z,15.23
2022-08-08T07:04:41.611Z,15.30
2022-08-08T07:09:45.286Z,15.34
2022-08-08T07:15:06.329Z,15.38
2022-08-08T07:20:32.609Z,15.45
2022-08-08T07:25:59.807Z,15.51
2022-08-08T07:31:04.616Z,15.67
2022-08-08T07:36:11.240Z,15.91
2022-08-08T07:41:23.893Z,16.00
2022-08-08T07:46:32.411Z,16.03
2022-08-08T07:51:45.173Z,16.05
2022-08-08T07:57:10.923Z,16.14
2022-08-08T08:02:36.909Z,16.25
2022-08-08T08:07:42.998Z,16.39
2022-08-08T08:12:57.535Z,16.52
2022-08-08T08:18:06.855Z,16.60
2022-08-08T08:23:18.387Z,16.67
2022-08-08T08:28:24.130Z,16.76
2022-08-08T08:33:28.542Z,16.91
2022-08-08T08:38:32.329Z,17.04
2022-08-08T08:43:42.419Z,17.14
2022-08-08T08:48:51.544Z,17.27
2022-08-08T08:54:00.994Z,17.47
2022-08-08T08:59:05.809Z,17.72
2022-08-08T09:04:30.148Z,17.95
2022-08-08T09:09:47.952Z,18.24
2022-08-08T09:14:55.630Z,18.40
2022-08-08T09:21:56.278Z,18.63
2022-08-08T09:25:36.233Z,18.95
2022-08-08T09:30:53.964Z,19.28
2022-08-08T09:36:02.287Z,19.55
2022-08-08T09:41:10.190Z,19.73
2022-08-08T09:46:25.505Z,19.87
2022-08-08T09:52:07.536Z,19.99
2022-08-08T09:57:16.072Z,20.12
2022-08-08T10:02:25.956Z,20.21
2022-08-08T10:07:43.230Z,20.33
2022-08-08T10:12:53.349Z,20.35
2022-08-08T10:18:06.135Z,20.41
2022-08-08T10:23:29.271Z,20.47
2022-08-08T10:29:07.266Z,20.53
2022-08-08T10:34:21.447Z,20.61
2022-08-08T10:39:43.146Z,20.75
2022-08-08T10:45:01.228Z,20.83
2022-08-08T10:50:07.999Z,20.92
2022-08-08T10:55:15.377Z,21.04
2022-08-08T11:00:25.647Z,21.09
2022-08-08T11:05:38.957Z,21.13
2022-08-08T11:10:44.263Z,21.21
2022-08-08T11:16:00.339Z,21.34
2022-08-08T11:21:10.307Z,21.60
2022-08-08T11:26:28.160Z,21.69
2022-08-08T11:31:46.955Z,21.74
2022-08-08T11:36:58.576Z,21.76
2022-08-08T11:42:09.174Z,21.77
2022-08-08T11:47:17.140Z,21.82
2022-08-08T11:52:27.474Z,21.84
2022-08-08T11:57:36.051Z,21.82
2022-08-08T12:02:51.078Z,21.84
2022-08-08T12:07:56.840Z,21.87
2022-08-08T12:13:06.186Z,21.91
2022-08-08T12:18:28.621Z,21.90
2022-08-08T12:23:43.711Z,21.82
2022-08-08T12:28:58.479Z,21.78
2022-08-08T12:34:03.245Z,21.82
2022-08-08T12:39:08.020Z,21.86
2022-08-08T12:44:32.021Z,21.83
2022-08-08T12:49:46.563Z,21.85
2022-08-08T12:55:09.422Z,21.89
2022-08-08T13:00:34.204Z,21.91
2022-08-08T13:06:04.985Z,21.96
2022-08-08T13:11:18.619Z,21.98
2022-08-08T13:16:25.613Z,22.01
2022-08-08T13:21:53.686Z,22.09
2022-08-08T13:27:03.523Z,22.16
2022-08-08T13:32:14.519Z,22.25
2022-08-08T13:37:28.036Z,22.37
2022-08-08T13:42:46.111Z,22.49
2022-08-08T13:47:58.202Z,22.59
2022-08-08T13:53:02.107Z,22.65
2022-08-08T13:58:29.104Z,22.70
2022-08-08T14:03:52.530Z,22.69
2022-08-08T14:08:58.056Z,22.64
2022-08-08T14:14:04.901Z,22.58
2022-08-08T14:19:17.682Z,22.62
2022-08-08T14:24:34.248Z,22.57
2022-08-08T14:29:39.446Z,22.54
2022-08-08T14:34:49.569Z,22.55
2022-08-08T14:40:06.703Z,22.60
2022-08-08T14:45:13.333Z,22.62
2022-08-08T14:50:37.577Z,22.62
2022-08-08T14:55:43.717Z,22.60
2022-08-08T15:00:49.823Z,22.60
2022-08-08T15:05:58.820Z,22.58
2022-08-08T15:11:04.714Z,22.55
2022-08-08T15:16:12.049Z,22.50
2022-08-08T15:21:18.468Z,22.41
2022-08-08T15:26:25.793Z,22.35
2022-08-08T15:32:03.867Z,22.33
2022-08-08T15:36:56.653Z,22.29
2022-08-08T15:42:02.055Z,22.22
2022-08-08T15:47:15.791Z,22.21
2022-08-08T15:52:25.005Z,22.19
2022-08-08T15:57:35.304Z,22.16
2022-08-08T16:02:50.976Z,22.15
2022-08-08T16:07:56.447Z,22.12
2022-08-08T16:13:28.531Z,22.07
2022-08-08T16:18:28.699Z,22.00
2022-08-08T16:23:34.046Z,21.94
2022-08-08T16:28:38.492Z,21.89
2022-08-08T16:33:49.836Z,21.83
2022-08-08T16:39:16.554Z,21.77
2022-08-08T16:44:54.515Z,21.72
2022-08-08T16:50:04.506Z,21.69
2022-08-08T16:55:33.898Z,21.66
2022-08-08T17:00:36.338Z,21.62
2022-08-08T17:05:44.577Z,21.58
2022-08-08T17:10:58.187Z,21.56
2022-08-08T17:16:03.699Z,21.54
2022-08-08T17:21:11.703Z,21.52
2022-08-08T17:26:16.472Z,21.46
2022-08-08T17:31:44.797Z,21.41
2022-08-08T17:37:00.642Z,21.36
2022-08-08T17:42:07.930Z,21.31
2022-08-08T17:47:15.982Z,21.26
2022-08-08T17:52:28.132Z,21.20
2022-08-08T17:57:35.339Z,21.13
2022-08-08T18:02:39.818Z,21.06
2022-08-08T18:08:01.994Z,20.98
2022-08-08T18:13:08.946Z,20.91
2022-08-08T18:18:29.403Z,20.86
2022-08-08T18:23:36.984Z,20.80
2022-08-08T18:28:54.894Z,20.75
2022-08-08T18:34:11.221Z,20.69
2022-08-08T18:39:27.848Z,20.63
2022-08-08T18:44:36.202Z,20.55
2022-08-08T18:49:57.517Z,20.47
2022-08-08T18:55:09.846Z,20.39
2022-08-08T19:00:19.844Z,20.29
2022-08-08T19:05:32.070Z,20.28
2022-08-08T19:10:41.892Z,20.38
2022-08-08T19:15:48.431Z,20.32
2022-08-08T19:20:56.172Z,20.25
2022-08-08T19:26:19.856Z,20.17
2022-08-08T19:31:23.573Z,20.09
2022-08-08T19:36:36.103Z,20.03
2022-08-08T19:41:42.773Z,19.98
2022-08-08T19:46:46.861Z,19.93
2022-08-08T19:51:51.584Z,19.87
2022-08-08T19:56:56.575Z,19.81
2022-08-08T20:02:03.174Z,19.76
2022-08-08T20:08:28.105Z,19.74
2022-08-08T20:12:35.559Z,19.68
2022-08-08T20:17:40.639Z,19.62
2022-08-08T20:22:45.799Z,19.56
2022-08-08T20:27:54.161Z,19.49
2022-08-08T20:32:58.468Z,19.40
2022-08-08T20:38:03.895Z,19.33
2022-08-08T20:43:16.435Z,19.27
2022-08-08T20:48:28.336Z,19.22
2022-08-08T20:54:00.657Z,19.16
2022-08-08T20:58:58.543Z,19.09
2022-08-08T21:04:02.194Z,18.93
2022-08-08T21:09:06.496Z,18.79
2022-08-08T21:14:12.060Z,18.70
2022-08-08T21:19:18.245Z,18.60
2022-08-08T21:24:30.001Z,18.50
2022-08-08T21:30:02.799Z,18.41
2022-08-08T21:36:14.097Z,18.31
2022-08-08T21:40:31.314Z,18.22
2022-08-08T21:48:01.185Z,18.13
2022-08-08T21:51:03.595Z,18.06
2022-08-08T21:56:19.799Z,18.02
2022-08-08T22:01:39.079Z,17.98
2022-08-08T22:06:45.393Z,17.91
2022-08-08T22:12:02.613Z,17.86
2022-08-08T22:17:14.816Z,17.80
2022-08-08T22:22:18.968Z,17.80
2022-08-08T22:27:38.479Z,17.82
2022-08-08T22:32:49.220Z,17.87
2022-08-08T22:37:54.777Z,17.95
2022-08-08T22:42:58.943Z,17.97
2022-08-08T22:48:02.768Z,18.00
2022-08-08T22:54:31.404Z,18.04
2022-08-08T22:58:34.623Z,18.06
2022-08-08T23:03:54.683Z,18.02
2022-08-08T23:09:00.222Z,18.00
2022-08-08T23:14:04.053Z,17.97
2022-08-08T23:19:09.317Z,17.97
2022-08-08T23:24:13.046Z,17.99
2022-08-08T23:29:27.004Z,17.98
2022-08-08T23:34:34.327Z,17.96
2022-08-08T23:39:41.940Z,17.96
2022-08-08T23:44:53.336Z,17.93
2022-08-08T23:50:03.160Z,17.81
2022-08-08T23:55:19.524Z,17.69
